sensor_id;sensor_type;location;lat;lon;timestamp;pressure;altitude;pressure_sealevel;temperature;humidity
3206;BME280;1615;53.602;11.418;2024-03-29T00:00:24;99089.94;;;8.91;100.00
3206;BME280;1615;53.602;11.418;2024-03-29T00:02:49;99107.59;;;9.02;100.00
3206;BME280;1615;53.602;11.418;2024-03-29T00:05:15;99112.41;;;9.05;100.00
3206;BME280;1615;53.602;11.418;2024-03-29T00:07:40;99107.91;;;9.09;100.00
3206;BME280;1615;53.602;11.418;2024-03-29T00:10:05;99009.63;;;8.41;100.00
3206;BME280;1615;53.602;11.418;2024-03-29T00:12:31;99028.91;;;8.61;100.00
3206;BME280;1615;53.602;11.418;2024-03-29T00:14:56;99044.47;;;8.69;100.00
3206;BME280;1615;53.602;11.418;2024-03-29T00:17:21;99069.19;;;8.90;100.00
3206;BME280;1615;53.602;11.418;2024-03-29T00:19:47;99081.56;;;8.87;100.00
3206;BME280;1615;53.602;11.418;2024-03-29T00:22:12;99067.91;;;8.79;100.00
3206;BME280;1615;53.602;11.418;2024-03-29T00:24:37;99096.84;;;8.97;100.00
3206;BME280;1615;53.602;11.418;2024-03-29T00:27:03;99098.13;;;8.91;100.00
3206;BME280;1615;53.602;11.418;2024-03-29T00:29:29;99009.31;;;8.34;100.00
3206;BME280;1615;53.602;11.418;2024-03-29T00:31:54;99121.72;;;9.04;100.00
3206;BME280;1615;53.602;11.418;2024-03-29T00:34:20;99120.13;;;9.03;100.00
3206;BME280;1615;53.602;11.418;2024-03-29T00:36:45;99081.56;;;8.79;100.00
3206;BME280;1615;53.602;11.418;2024-03-29T00:39:11;99130.91;;;9.08;100.00
3206;BME280;1615;53.602;11.418;2024-03-29T00:41:36;99128.16;;;9.08;100.00
3206;BME280;1615;53.602;11.418;2024-03-29T00:44:02;99136.53;;;9.11;100.00
3206;BME280;1615;53.602;11.418;2024-03-29T00:46:28;99142.13;;;9.23;100.00
3206;BME280;1615;53.602;11.418;2024-03-29T00:48:53;99138.44;;;9.11;100.00
3206;BME280;1615;53.602;11.418;2024-03-29T00:51:19;99145.53;;;9.12;100.00
3206;BME280;1615;53.602;11.418;2024-03-29T00:53:44;99137.16;;;9.00;100.00
3206;BME280;1615;53.602;11.418;2024-03-29T00:56:09;98947.28;;;7.92;100.00
3206;BME280;1615;53.602;11.418;2024-03-29T00:58:35;99149.88;;;9.04;100.00
3206;BME280;1615;53.602;11.418;2024-03-29T01:01:00;99014.91;;;8.20;100.00
3206;BME280;1615;53.602;11.418;2024-03-29T01:03:25;99113.06;;;8.85;100.00
3206;BME280;1615;53.602;11.418;2024-03-29T01:05:53;99124.31;;;9.09;100.00
3206;BME280;1615;53.602;11.418;2024-03-29T01:08:19;99151.16;;;8.90;100.00
3206;BME280;1615;53.602;11.418;2024-03-29T01:10:44;99123.19;;;8.84;100.00
3206;BME280;1615;53.602;11.418;2024-03-29T01:13:10;99139.28;;;8.86;100.00
3206;BME280;1615;53.602;11.418;2024-03-29T01:15:35;99099.09;;;8.61;100.00
3206;BME280;1615;53.602;11.418;2024-03-29T01:18:00;99145.38;;;8.83;100.00
3206;BME280;1615;53.602;11.418;2024-03-29T01:20:25;99144.56;;;8.74;100.00
3206;BME280;1615;53.602;11.418;2024-03-29T01:22:51;99097.13;;;8.44;100.00
3206;BME280;1615;53.602;11.418;2024-03-29T01:25:16;99123.97;;;8.59;100.00
3206;BME280;1615;53.602;11.418;2024-03-29T01:27:42;99115.31;;;8.49;100.00
3206;BME280;1615;53.602;11.418;2024-03-29T01:30:08;99118.19;;;8.44;100.00
3206;BME280;1615;53.602;11.418;2024-03-29T01:32:34;99109.19;;;8.35;100.00
3206;BME280;1615;53.602;11.418;2024-03-29T01:34:59;99121.25;;;8.42;100.00
3206;BME280;1615;53.602;11.418;2024-03-29T01:37:24;99111.09;;;8.34;100.00
3206;BME280;1615;53.602;11.418;2024-03-29T01:39:51;99033.31;;;7.89;100.00
3206;BME280;1615;53.602;11.418;2024-03-29T01:42:16;99109.00;;;8.23;100.00
3206;BME280;1615;53.602;11.418;2024-03-29T01:44:41;99092.44;;;8.11;100.00
3206;BME280;1615;53.602;11.418;2024-03-29T01:47:07;99055.91;;;7.81;100.00
3206;BME280;1615;53.602;11.418;2024-03-29T01:49:33;99156.06;;;8.37;100.00
3206;BME280;1615;53.602;11.418;2024-03-29T01:51:58;99143.06;;;8.34;100.00
3206;BME280;1615;53.602;11.418;2024-03-29T01:54:24;99139.19;;;8.26;100.00
3206;BME280;1615;53.602;11.418;2024-03-29T01:56:50;99151.59;;;8.41;100.00
3206;BME280;1615;53.602;11.418;2024-03-29T01:59:17;99154.13;;;8.29;100.00
3206;BME280;1615;53.602;11.418;2024-03-29T02:01:45;99106.34;;;8.01;100.00
3206;BME280;1615;53.602;11.418;2024-03-29T02:04:11;99153.84;;;8.39;100.00
3206;BME280;1615;53.602;11.418;2024-03-29T02:06:38;99112.78;;;8.05;100.00
3206;BME280;1615;53.602;11.418;2024-03-29T02:09:03;99157.69;;;8.29;100.00
3206;BME280;1615;53.602;11.418;2024-03-29T02:11:29;99066.78;;;7.73;100.00
3206;BME280;1615;53.602;11.418;2024-03-29T02:13:55;99108.72;;;7.94;100.00
3206;BME280;1615;53.602;11.418;2024-03-29T02:16:21;99137.19;;;8.10;100.00
3206;BME280;1615;53.602;11.418;2024-03-29T02:18:46;99139.75;;;8.15;100.00
3206;BME280;1615;53.602;11.418;2024-03-29T02:21:11;99162.00;;;8.30;100.00
3206;BME280;1615;53.602;11.418;2024-03-29T02:23:40;99041.84;;;7.49;100.00
3206;BME280;1615;53.602;11.418;2024-03-29T02:26:08;99139.91;;;8.10;100.00
3206;BME280;1615;53.602;11.418;2024-03-29T02:28:33;99128.31;;;7.96;100.00
3206;BME280;1615;53.602;11.418;2024-03-29T02:30:59;99178.38;;;8.22;100.00
3206;BME280;1615;53.602;11.418;2024-03-29T02:33:24;99086.78;;;7.60;100.00
3206;BME280;1615;53.602;11.418;2024-03-29T02:35:49;99175.66;;;8.22;100.00
3206;BME280;1615;53.602;11.418;2024-03-29T02:38:14;99144.03;;;7.99;100.00
3206;BME280;1615;53.602;11.418;2024-03-29T02:40:40;99177.66;;;8.16;100.00
3206;BME280;1615;53.602;11.418;2024-03-29T02:43:05;99184.13;;;8.20;100.00
3206;BME280;1615;53.602;11.418;2024-03-29T02:45:31;99145.47;;;7.88;100.00
3206;BME280;1615;53.602;11.418;2024-03-29T02:47:56;99166.88;;;8.03;100.00
3206;BME280;1615;53.602;11.418;2024-03-29T02:50:21;99171.69;;;8.06;100.00
3206;BME280;1615;53.602;11.418;2024-03-29T02:52:48;99172.50;;;8.06;100.00
3206;BME280;1615;53.602;11.418;2024-03-29T02:55:13;99184.69;;;8.09;100.00
3206;BME280;1615;53.602;11.418;2024-03-29T02:57:39;99134.69;;;7.83;100.00
3206;BME280;1615;53.602;11.418;2024-03-29T03:00:05;99194.50;;;8.10;100.00
3206;BME280;1615;53.602;11.418;2024-03-29T03:02:31;99168.56;;;7.90;100.00
3206;BME280;1615;53.602;11.418;2024-03-29T03:04:56;99166.63;;;7.82;100.00
3206;BME280;1615;53.602;11.418;2024-03-29T03:07:21;99146.69;;;7.73;100.00
3206;BME280;1615;53.602;11.418;2024-03-29T03:10:06;99166.94;;;7.81;100.00
3206;BME280;1615;53.602;11.418;2024-03-29T03:12:50;99189.63;;;7.90;100.00
3206;BME280;1615;53.602;11.418;2024-03-29T03:15:15;99046.06;;;6.94;100.00
3206;BME280;1615;53.602;11.418;2024-03-29T03:17:40;99146.78;;;7.60;100.00
3206;BME280;1615;53.602;11.418;2024-03-29T03:20:06;99211.31;;;7.95;100.00
3206;BME280;1615;53.602;11.418;2024-03-29T03:22:32;99210.19;;;7.96;100.00
3206;BME280;1615;53.602;11.418;2024-03-29T03:24:57;99176.41;;;7.83;100.00
3206;BME280;1615;53.602;11.418;2024-03-29T03:27:23;99193.16;;;7.99;100.00
3206;BME280;1615;53.602;11.418;2024-03-29T03:29:48;99204.84;;;7.91;100.00
3206;BME280;1615;53.602;11.418;2024-03-29T03:32:14;99177.06;;;7.89;100.00
3206;BME280;1615;53.602;11.418;2024-03-29T03:34:39;99148.13;;;7.71;100.00
3206;BME280;1615;53.602;11.418;2024-03-29T03:37:05;99186.69;;;7.86;100.00
3206;BME280;1615;53.602;11.418;2024-03-29T03:39:30;99183.16;;;7.86;100.00
3206;BME280;1615;53.602;11.418;2024-03-29T03:41:55;99126.44;;;7.35;100.00
3206;BME280;1615;53.602;11.418;2024-03-29T03:44:21;99178.78;;;7.76;100.00
3206;BME280;1615;53.602;11.418;2024-03-29T03:46:49;99170.75;;;7.71;100.00
3206;BME280;1615;53.602;11.418;2024-03-29T03:49:14;99166.09;;;7.72;100.00
3206;BME280;1615;53.602;11.418;2024-03-29T03:51:39;99176.91;;;7.85;100.00
3206;BME280;1615;53.602;11.418;2024-03-29T03:54:04;99053.22;;;7.12;100.00
3206;BME280;1615;53.602;11.418;2024-03-29T03:56:30;99168.06;;;7.80;100.00
3206;BME280;1615;53.602;11.418;2024-03-29T03:58:55;99169.97;;;7.79;100.00
3206;BME280;1615;53.602;11.418;2024-03-29T04:01:20;99169.31;;;7.74;100.00
3206;BME280;1615;53.602;11.418;2024-03-29T04:03:46;99110.56;;;7.37;100.00
3206;BME280;1615;53.602;11.418;2024-03-29T04:06:11;99139.72;;;7.59;100.00
3206;BME280;1615;53.602;11.418;2024-03-29T04:08:36;98917.25;;;6.10;100.00
3206;BME280;1615;53.602;11.418;2024-03-29T04:11:02;99195.06;;;7.90;100.00
3206;BME280;1615;53.602;11.418;2024-03-29T04:13:28;99181.53;;;7.76;100.00
3206;BME280;1615;53.602;11.418;2024-03-29T04:15:53;99191.00;;;7.79;100.00
3206;BME280;1615;53.602;11.418;2024-03-29T04:18:18;99172.47;;;7.67;100.00
3206;BME280;1615;53.602;11.418;2024-03-29T04:20:44;99176.84;;;7.77;100.00
3206;BME280;1615;53.602;11.418;2024-03-29T04:23:09;99171.38;;;7.68;100.00
3206;BME280;1615;53.602;11.418;2024-03-29T04:25:34;99108.44;;;7.26;100.00
3206;BME280;1615;53.602;11.418;2024-03-29T04:27:59;98927.94;;;6.07;100.00
3206;BME280;1615;53.602;11.418;2024-03-29T04:30:25;99183.66;;;7.57;100.00
3206;BME280;1615;53.602;11.418;2024-03-29T04:32:50;99201.41;;;7.77;100.00
3206;BME280;1615;53.602;11.418;2024-03-29T04:35:15;99186.16;;;7.76;100.00
3206;BME280;1615;53.602;11.418;2024-03-29T04:37:41;99150.38;;;7.69;100.00
3206;BME280;1615;53.602;11.418;2024-03-29T04:40:06;99175.94;;;7.81;100.00
3206;BME280;1615;53.602;11.418;2024-03-29T04:42:32;98960.38;;;6.47;100.00
3206;BME280;1615;53.602;11.418;2024-03-29T04:44:57;99173.50;;;7.80;100.00
3206;BME280;1615;53.602;11.418;2024-03-29T04:47:22;99158.19;;;7.70;100.00
3206;BME280;1615;53.602;11.418;2024-03-29T04:49:48;99153.28;;;7.81;100.00
3206;BME280;1615;53.602;11.418;2024-03-29T04:52:13;99132.75;;;7.75;100.00
3206;BME280;1615;53.602;11.418;2024-03-29T04:54:38;99153.47;;;7.84;100.00
3206;BME280;1615;53.602;11.418;2024-03-29T04:57:04;99161.53;;;7.98;100.00
3206;BME280;1615;53.602;11.418;2024-03-29T04:59:32;99162.38;;;7.98;100.00
3206;BME280;1615;53.602;11.418;2024-03-29T05:01:59;99157.84;;;7.94;100.00
3206;BME280;1615;53.602;11.418;2024-03-29T05:04:25;99143.53;;;7.88;100.00
3206;BME280;1615;53.602;11.418;2024-03-29T05:06:57;98964.06;;;6.73;100.00
3206;BME280;1615;53.602;11.418;2024-03-29T05:09:25;99130.78;;;7.75;100.00
3206;BME280;1615;53.602;11.418;2024-03-29T05:11:51;99185.47;;;8.01;100.00
3206;BME280;1615;53.602;11.418;2024-03-29T05:14:19;99214.84;;;8.04;100.00
3206;BME280;1615;53.602;11.418;2024-03-29T05:16:45;99143.66;;;7.75;100.00
3206;BME280;1615;53.602;11.418;2024-03-29T05:19:11;99188.22;;;8.01;100.00
3206;BME280;1615;53.602;11.418;2024-03-29T05:21:37;99189.50;;;8.03;100.00
3206;BME280;1615;53.602;11.418;2024-03-29T05:24:02;99191.13;;;8.04;100.00
3206;BME280;1615;53.602;11.418;2024-03-29T05:26:28;99178.69;;;7.90;100.00
3206;BME280;1615;53.602;11.418;2024-03-29T05:28:53;99144.41;;;7.67;100.00
3206;BME280;1615;53.602;11.418;2024-03-29T05:31:22;99197.78;;;7.90;100.00
3206;BME280;1615;53.602;11.418;2024-03-29T05:33:48;99183.78;;;7.83;100.00
3206;BME280;1615;53.602;11.418;2024-03-29T05:36:13;99205.19;;;7.98;100.00
3206;BME280;1615;53.602;11.418;2024-03-29T05:38:39;99179.22;;;7.70;100.00
3206;BME280;1615;53.602;11.418;2024-03-29T05:41:04;99258.56;;;8.12;100.00
3206;BME280;1615;53.602;11.418;2024-03-29T05:43:30;98948.22;;;6.23;100.00
3206;BME280;1615;53.602;11.418;2024-03-29T05:45:56;99247.31;;;8.14;100.00
3206;BME280;1615;53.602;11.418;2024-03-29T05:48:21;99185.72;;;7.82;100.00
3206;BME280;1615;53.602;11.418;2024-03-29T05:50:46;99229.22;;;8.18;100.00
3206;BME280;1615;53.602;11.418;2024-03-29T05:53:11;99140.63;;;7.76;100.00
3206;BME280;1615;53.602;11.418;2024-03-29T05:55:37;99248.88;;;8.37;100.00
3206;BME280;1615;53.602;11.418;2024-03-29T05:58:02;99118.91;;;7.63;100.00
3206;BME280;1615;53.602;11.418;2024-03-29T06:00:28;99213.97;;;8.17;100.00
3206;BME280;1615;53.602;11.418;2024-03-29T06:02:54;99223.34;;;8.24;100.00
3206;BME280;1615;53.602;11.418;2024-03-29T06:05:19;99071.50;;;7.42;100.00
3206;BME280;1615;53.602;11.418;2024-03-29T06:07:45;99256.22;;;8.58;100.00
3206;BME280;1615;53.602;11.418;2024-03-29T06:10:10;99232.84;;;8.35;100.00
3206;BME280;1615;53.602;11.418;2024-03-29T06:12:36;99240.41;;;8.47;100.00
3206;BME280;1615;53.602;11.418;2024-03-29T06:15:04;99057.75;;;7.25;100.00
3206;BME280;1615;53.602;11.418;2024-03-29T06:17:48;99235.63;;;8.52;100.00
3206;BME280;1615;53.602;11.418;2024-03-29T06:20:14;99239.69;;;8.72;100.00
3206;BME280;1615;53.602;11.418;2024-03-29T06:22:39;99266.03;;;8.76;100.00
3206;BME280;1615;53.602;11.418;2024-03-29T06:25:05;99135.88;;;8.07;100.00
3206;BME280;1615;53.602;11.418;2024-03-29T06:27:34;99242.91;;;8.74;100.00
3206;BME280;1615;53.602;11.418;2024-03-29T06:30:00;99182.28;;;8.38;100.00
3206;BME280;1615;53.602;11.418;2024-03-29T06:32:26;99267.88;;;8.98;100.00
3206;BME280;1615;53.602;11.418;2024-03-29T06:34:51;99235.84;;;8.90;100.00
3206;BME280;1615;53.602;11.418;2024-03-29T06:37:17;99266.59;;;9.12;100.00
3206;BME280;1615;53.602;11.418;2024-03-29T06:39:42;99270.31;;;9.16;100.00
3206;BME280;1615;53.602;11.418;2024-03-29T06:42:08;99241.81;;;8.75;100.00
3206;BME280;1615;53.602;11.418;2024-03-29T06:44:35;99280.56;;;8.94;100.00
3206;BME280;1615;53.602;11.418;2024-03-29T06:47:00;99249.66;;;8.85;100.00
3206;BME280;1615;53.602;11.418;2024-03-29T06:49:26;99289.41;;;8.99;100.00
3206;BME280;1615;53.602;11.418;2024-03-29T06:51:51;99205.13;;;8.59;100.00
3206;BME280;1615;53.602;11.418;2024-03-29T06:54:17;99271.91;;;9.09;100.00
3206;BME280;1615;53.602;11.418;2024-03-29T06:56:42;99251.47;;;8.89;100.00
3206;BME280;1615;53.602;11.418;2024-03-29T06:59:07;99258.88;;;9.06;100.00
3206;BME280;1615;53.602;11.418;2024-03-29T07:01:33;99283.16;;;9.24;100.00
3206;BME280;1615;53.602;11.418;2024-03-29T07:03:58;99200.81;;;8.75;100.00
3206;BME280;1615;53.602;11.418;2024-03-29T07:06:24;99233.31;;;9.02;100.00
3206;BME280;1615;53.602;11.418;2024-03-29T07:08:49;99207.59;;;8.86;100.00
3206;BME280;1615;53.602;11.418;2024-03-29T07:11:15;99185.06;;;8.72;100.00
3206;BME280;1615;53.602;11.418;2024-03-29T07:13:40;99276.91;;;9.32;100.00
3206;BME280;1615;53.602;11.418;2024-03-29T07:16:06;99115.63;;;8.39;99.92
3206;BME280;1615;53.602;11.418;2024-03-29T07:18:34;99267.72;;;9.37;100.00
3206;BME280;1615;53.602;11.418;2024-03-29T07:21:00;99255.50;;;9.26;99.49
3206;BME280;1615;53.602;11.418;2024-03-29T07:23:25;99204.53;;;8.96;99.03
3206;BME280;1615;53.602;11.418;2024-03-29T07:26:03;99297.50;;;9.55;99.05
3206;BME280;1615;53.602;11.418;2024-03-29T07:28:29;99293.47;;;9.53;98.76
3206;BME280;1615;53.602;11.418;2024-03-29T07:30:54;99211.78;;;9.09;97.75
3206;BME280;1615;53.602;11.418;2024-03-29T07:33:20;99305.22;;;9.62;97.18
3206;BME280;1615;53.602;11.418;2024-03-29T07:35:49;99301.34;;;9.71;97.04
3206;BME280;1615;53.602;11.418;2024-03-29T07:38:14;99294.91;;;9.67;97.01
3206;BME280;1615;53.602;11.418;2024-03-29T07:40:46;99290.09;;;9.73;97.77
3206;BME280;1615;53.602;11.418;2024-03-29T07:43:11;99273.53;;;9.61;97.76
3206;BME280;1615;53.602;11.418;2024-03-29T07:45:39;99167.38;;;8.95;97.01
3206;BME280;1615;53.602;11.418;2024-03-29T07:48:06;99305.88;;;9.84;95.89
3206;BME280;1615;53.602;11.418;2024-03-29T07:50:31;99295.66;;;10.02;94.72
3206;BME280;1615;53.602;11.418;2024-03-29T07:52:56;99288.91;;;9.99;92.02
3206;BME280;1615;53.602;11.418;2024-03-29T07:55:22;99309.03;;;10.20;90.59
3206;BME280;1615;53.602;11.418;2024-03-29T07:57:47;99301.31;;;10.22;90.05
3206;BME280;1615;53.602;11.418;2024-03-29T08:00:13;99281.81;;;10.24;88.30
3206;BME280;1615;53.602;11.418;2024-03-29T08:02:38;99285.31;;;10.33;87.40
3206;BME280;1615;53.602;11.418;2024-03-29T08:05:05;99311.63;;;10.63;85.39
3206;BME280;1615;53.602;11.418;2024-03-29T08:07:34;99302.44;;;10.59;83.82
3206;BME280;1615;53.602;11.418;2024-03-29T08:09:59;99314.78;;;10.73;83.12
3206;BME280;1615;53.602;11.418;2024-03-29T08:12:24;99320.72;;;10.84;82.98
3206;BME280;1615;53.602;11.418;2024-03-29T08:14:50;99288.09;;;10.62;82.44
3206;BME280;1615;53.602;11.418;2024-03-29T08:17:15;99324.44;;;10.88;82.59
3206;BME280;1615;53.602;11.418;2024-03-29T08:19:40;99336.91;;;11.06;81.57
3206;BME280;1615;53.602;11.418;2024-03-29T08:22:07;99205.91;;;10.24;82.44
3206;BME280;1615;53.602;11.418;2024-03-29T08:24:35;99314.88;;;10.94;82.83
3206;BME280;1615;53.602;11.418;2024-03-29T08:27:01;99285.75;;;10.81;81.84
3206;BME280;1615;53.602;11.418;2024-03-29T08:29:27;99307.75;;;11.22;81.49
3206;BME280;1615;53.602;11.418;2024-03-29T08:31:52;99331.75;;;11.54;80.42
3206;BME280;1615;53.602;11.418;2024-03-29T08:34:18;99324.13;;;11.59;80.08
3206;BME280;1615;53.602;11.418;2024-03-29T08:36:43;99266.94;;;11.00;81.19
3206;BME280;1615;53.602;11.418;2024-03-29T08:39:09;99269.53;;;10.96;81.41
3206;BME280;1615;53.602;11.418;2024-03-29T08:41:34;99345.41;;;11.42;82.21
3206;BME280;1615;53.602;11.418;2024-03-29T08:44:00;99329.59;;;11.39;84.20
3206;BME280;1615;53.602;11.418;2024-03-29T08:46:25;99296.34;;;11.11;84.01
3206;BME280;1615;53.602;11.418;2024-03-29T08:48:50;99334.94;;;11.35;85.73
3206;BME280;1615;53.602;11.418;2024-03-29T08:51:16;99351.28;;;11.52;87.73
3206;BME280;1615;53.602;11.418;2024-03-29T08:53:41;99293.59;;;11.20;89.14
3206;BME280;1615;53.602;11.418;2024-03-29T08:56:06;99363.16;;;11.65;91.00
3206;BME280;1615;53.602;11.418;2024-03-29T08:58:32;99374.59;;;11.67;93.51
3206;BME280;1615;53.602;11.418;2024-03-29T09:00:57;99356.44;;;11.54;95.15
3206;BME280;1615;53.602;11.418;2024-03-29T09:03:23;99343.38;;;11.51;97.46
3206;BME280;1615;53.602;11.418;2024-03-29T09:05:49;99358.25;;;11.50;100.00
3206;BME280;1615;53.602;11.418;2024-03-29T09:08:15;99151.97;;;10.25;100.00
3206;BME280;1615;53.602;11.418;2024-03-29T09:10:40;99314.59;;;11.36;100.00
3206;BME280;1615;53.602;11.418;2024-03-29T09:13:05;99317.66;;;11.35;100.00
3206;BME280;1615;53.602;11.418;2024-03-29T09:15:32;99282.84;;;11.06;100.00
3206;BME280;1615;53.602;11.418;2024-03-29T09:17:57;99052.88;;;9.65;100.00
3206;BME280;1615;53.602;11.418;2024-03-29T09:20:26;99308.78;;;11.38;100.00
3206;BME280;1615;53.602;11.418;2024-03-29T09:22:51;99294.31;;;11.29;100.00
3206;BME280;1615;53.602;11.418;2024-03-29T09:25:17;99274.22;;;11.16;100.00
3206;BME280;1615;53.602;11.418;2024-03-29T09:27:45;99306.97;;;11.42;100.00
3206;BME280;1615;53.602;11.418;2024-03-29T09:30:12;99271.41;;;11.04;100.00
3206;BME280;1615;53.602;11.418;2024-03-29T09:32:37;99274.66;;;10.98;100.00
3206;BME280;1615;53.602;11.418;2024-03-29T09:35:03;99096.88;;;9.89;100.00
3206;BME280;1615;53.602;11.418;2024-03-29T09:37:28;99304.59;;;11.11;100.00
3206;BME280;1615;53.602;11.418;2024-03-29T09:39:53;99306.53;;;11.11;100.00
3206;BME280;1615;53.602;11.418;2024-03-29T09:42:21;99235.03;;;10.66;100.00
3206;BME280;1615;53.602;11.418;2024-03-29T09:44:50;99282.84;;;11.06;100.00
3206;BME280;1615;53.602;11.418;2024-03-29T09:47:17;99259.66;;;10.75;100.00
3206;BME280;1615;53.602;11.418;2024-03-29T09:49:44;99289.84;;;10.95;100.00
3206;BME280;1615;53.602;11.418;2024-03-29T09:52:10;99306.28;;;11.04;100.00
3206;BME280;1615;53.602;11.418;2024-03-29T09:54:37;99281.03;;;10.90;100.00
3206;BME280;1615;53.602;11.418;2024-03-29T09:57:04;99297.56;;;11.02;100.00
3206;BME280;1615;53.602;11.418;2024-03-29T09:59:30;99272.75;;;10.69;100.00
3206;BME280;1615;53.602;11.418;2024-03-29T10:01:55;99301.91;;;10.74;100.00
3206;BME280;1615;53.602;11.418;2024-03-29T10:04:23;99290.84;;;10.62;100.00
3206;BME280;1615;53.602;11.418;2024-03-29T10:06:49;99262.94;;;10.31;100.00
3206;BME280;1615;53.602;11.418;2024-03-29T10:09:19;99232.03;;;10.22;100.00
3206;BME280;1615;53.602;11.418;2024-03-29T10:11:46;99263.31;;;10.50;100.00
3206;BME280;1615;53.602;11.418;2024-03-29T10:14:12;99195.47;;;10.18;100.00
3206;BME280;1615;53.602;11.418;2024-03-29T10:16:37;99254.97;;;10.46;100.00
3206;BME280;1615;53.602;11.418;2024-03-29T10:19:03;99258.22;;;10.40;100.00
3206;BME280;1615;53.602;11.418;2024-03-29T10:21:29;99237.50;;;10.22;100.00
3206;BME280;1615;53.602;11.418;2024-03-29T10:23:54;99240.25;;;10.22;100.00
3206;BME280;1615;53.602;11.418;2024-03-29T10:26:20;99206.44;;;10.18;100.00
3206;BME280;1615;53.602;11.418;2024-03-29T10:28:47;99215.28;;;10.23;100.00
3206;BME280;1615;53.602;11.418;2024-03-29T10:31:12;99195.38;;;10.06;100.00
3206;BME280;1615;53.602;11.418;2024-03-29T10:33:42;99210.44;;;10.20;100.00
3206;BME280;1615;53.602;11.418;2024-03-29T10:36:08;99180.56;;;9.98;100.00
3206;BME280;1615;53.602;11.418;2024-03-29T10:38:35;99129.00;;;9.63;100.00
3206;BME280;1615;53.602;11.418;2024-03-29T10:41:01;99210.13;;;10.22;100.00
3206;BME280;1615;53.602;11.418;2024-03-29T10:43:29;99202.19;;;10.29;100.00
3206;BME280;1615;53.602;11.418;2024-03-29T10:45:55;99171.13;;;10.25;100.00
3206;BME280;1615;53.602;11.418;2024-03-29T10:48:25;99179.63;;;10.32;100.00
3206;BME280;1615;53.602;11.418;2024-03-29T10:50:53;99212.50;;;10.61;100.00
3206;BME280;1615;53.602;11.418;2024-03-29T10:53:19;99216.31;;;10.68;100.00
3206;BME280;1615;53.602;11.418;2024-03-29T10:55:46;99178.50;;;10.62;100.00
3206;BME280;1615;53.602;11.418;2024-03-29T10:58:12;99207.31;;;10.68;100.00
3206;BME280;1615;53.602;11.418;2024-03-29T11:00:44;99172.97;;;10.70;100.00
3206;BME280;1615;53.602;11.418;2024-03-29T11:06:02;99167.41;;;10.99;100.00
3206;BME280;1615;53.602;11.418;2024-03-29T11:08:31;99192.28;;;11.35;100.00
3206;BME280;1615;53.602;11.418;2024-03-29T11:11:00;99186.06;;;11.26;100.00
3206;BME280;1615;53.602;11.418;2024-03-29T11:16:17;99032.94;;;10.22;100.00
3206;BME280;1615;53.602;11.418;2024-03-29T11:18:44;99200.44;;;11.44;100.00
3206;BME280;1615;53.602;11.418;2024-03-29T11:21:13;99216.56;;;11.45;100.00
3206;BME280;1615;53.602;11.418;2024-03-29T11:23:39;99196.53;;;11.45;100.00
3206;BME280;1615;53.602;11.418;2024-03-29T11:26:07;99180.75;;;11.42;100.00
3206;BME280;1615;53.602;11.418;2024-03-29T11:28:33;99190.44;;;11.60;100.00
3206;BME280;1615;53.602;11.418;2024-03-29T11:31:02;99104.16;;;11.04;100.00
3206;BME280;1615;53.602;11.418;2024-03-29T11:36:16;99199.84;;;12.03;100.00
3206;BME280;1615;53.602;11.418;2024-03-29T11:38:42;99207.66;;;12.13;100.00
3206;BME280;1615;53.602;11.418;2024-03-29T11:41:14;99201.81;;;12.27;100.00
3206;BME280;1615;53.602;11.418;2024-03-29T11:43:40;99163.56;;;12.10;100.00
3206;BME280;1615;53.602;11.418;2024-03-29T11:46:08;99166.88;;;12.39;100.00
3206;BME280;1615;53.602;11.418;2024-03-29T11:48:34;99132.22;;;12.23;100.00
3206;BME280;1615;53.602;11.418;2024-03-29T11:51:01;99172.00;;;12.77;100.00
3206;BME280;1615;53.602;11.418;2024-03-29T11:53:28;99193.53;;;12.99;100.00
3206;BME280;1615;53.602;11.418;2024-03-29T11:55:54;99209.56;;;13.09;100.00
3206;BME280;1615;53.602;11.418;2024-03-29T11:58:23;99193.03;;;13.21;100.00
3206;BME280;1615;53.602;11.418;2024-03-29T12:00:50;99181.56;;;13.19;99.41
3206;BME280;1615;53.602;11.418;2024-03-29T12:03:16;99183.31;;;13.11;97.90
3206;BME280;1615;53.602;11.418;2024-03-29T12:05:46;99204.25;;;13.16;100.00
3206;BME280;1615;53.602;11.418;2024-03-29T12:08:13;99167.63;;;13.12;99.90
3206;BME280;1615;53.602;11.418;2024-03-29T12:10:39;99133.59;;;13.04;99.94
3206;BME280;1615;53.602;11.418;2024-03-29T12:13:05;99016.06;;;12.50;97.61
3206;BME280;1615;53.602;11.418;2024-03-29T12:15:31;99239.56;;;13.81;96.90
3206;BME280;1615;53.602;11.418;2024-03-29T12:18:04;99197.22;;;13.85;94.42
3206;BME280;1615;53.602;11.418;2024-03-29T12:20:34;99205.22;;;13.90;94.23
3206;BME280;1615;53.602;11.418;2024-03-29T12:23:02;99204.41;;;13.90;92.95
3206;BME280;1615;53.602;11.418;2024-03-29T12:25:29;99196.16;;;13.90;93.25
3206;BME280;1615;53.602;11.418;2024-03-29T12:27:55;99122.06;;;13.42;93.73
3206;BME280;1615;53.602;11.418;2024-03-29T12:30:21;99182.47;;;13.93;93.71
3206;BME280;1615;53.602;11.418;2024-03-29T12:32:47;99168.09;;;14.00;93.39
3206;BME280;1615;53.602;11.418;2024-03-29T12:35:15;99186.13;;;14.13;92.83
3206;BME280;1615;53.602;11.418;2024-03-29T12:37:48;99162.06;;;14.25;93.15
3206;BME280;1615;53.602;11.418;2024-03-29T12:40:16;99189.47;;;14.49;92.06
3206;BME280;1615;53.602;11.418;2024-03-29T12:42:47;99165.53;;;14.38;89.15
3206;BME280;1615;53.602;11.418;2024-03-29T12:45:12;99193.53;;;14.55;89.83
3206;BME280;1615;53.602;11.418;2024-03-29T12:47:38;99182.88;;;14.38;91.55
3206;BME280;1615;53.602;11.418;2024-03-29T12:50:03;99162.00;;;14.22;89.75
3206;BME280;1615;53.602;11.418;2024-03-29T12:52:39;99019.56;;;13.02;89.40
3206;BME280;1615;53.602;11.418;2024-03-29T12:55:05;99175.09;;;13.82;93.03
3206;BME280;1615;53.602;11.418;2024-03-29T12:57:31;99163.00;;;13.71;95.25
3206;BME280;1615;53.602;11.418;2024-03-29T12:59:56;99192.53;;;14.01;96.63
3206;BME280;1615;53.602;11.418;2024-03-29T13:02:21;99160.25;;;13.71;96.49
3206;BME280;1615;53.602;11.418;2024-03-29T13:04:48;99195.97;;;13.98;96.73
3206;BME280;1615;53.602;11.418;2024-03-29T13:07:13;99172.19;;;13.90;96.04
3206;BME280;1615;53.602;11.418;2024-03-29T13:09:39;99210.00;;;14.21;97.28
3206;BME280;1615;53.602;11.418;2024-03-29T13:12:05;99201.63;;;14.17;96.20